Bangkok Bridge — 3FTZ8 — position and weather

sailwx.info

Track history (hours):
 
Tides and Currents Weather Stations Pressure Air Temp Water Temp Dewpoint Dewpoint Depression Visibility Wind Speed Wind Dir Waves Ship Positions

Bangkok Bridge

Last reported at 2016-May-25 08:28 UTC. Time now 2016-May-31 20:03 UTC.
Position N 38°10' W 123°57'.

Length 267 m; draft 10.3 m.

Type: Ship (hazmat cat A). MMSI: 353368000.

Date/timePositionNaut miles runAvg speedWind from/ knotsBaromVisibWave heightAir tempDewpointWater temp
2016-May-25 08:28N 38°10' W 123°57'1719.2
2016-May-25 07:33N 38°10' W 123°35'1212.2
2016-May-25 06:33N 38°08' W 123°19'9 9.4
2016-May-25 05:33N 38°01' W 123°11'10 9.9
2016-May-25 04:33N 37°55' W 123°01'10 9.8
2016-May-25 03:33N 37°50' W 122°50'9 9.1
2016-May-25 02:33N 37°46' W 122°40'1414.0
2016-May-25 01:33N 37°49' W 122°23'3 2.6
2016-May-25 00:33N 37°49' W 122°20'0 0.0
2016-May-24 23:33N 37°49' W 122°20'0 0.0
2016-May-24 22:33N 37°49' W 122°20'0 0.0
2016-May-24 21:33N 37°49' W 122°20'0 0.0
2016-May-24 20:33N 37°49' W 122°20'0 0.0
2016-May-24 19:33N 37°49' W 122°20'0 0.0
2016-May-24 18:33N 37°49' W 122°20'0 0.0
2016-May-24 17:33N 37°49' W 122°20'0 0.0
2016-May-24 16:33N 37°49' W 122°20'0 0.0
2016-May-24 15:33N 37°49' W 122°20'0 0.0
2016-May-24 14:33N 37°49' W 122°20'0 0.0
2016-May-24 13:33N 37°49' W 122°20'4 4.0
2016-May-24 12:33N 37°49' W 122°25'1313.0
2016-May-24 11:34N 37°45' W 122°40'9 8.5
2016-May-24 10:33N 37°36' W 122°40'10 9.7
2016-May-24 09:33N 37°26' W 122°40'15 9.9
2016-May-24 08:05N 37°12' W 122°40'810.5
2016-May-24 07:22N 37°05' W 122°38'6 0.8
2016-May-23 23:31N 36°59' W 122°36'7 7.5
2016-May-23 22:33N 36°52' W 122°32'10 9.6
2016-May-23 21:33N 36°43' W 122°28'10 9.9
2016-May-23 20:33N 36°34' W 122°24'10 9.8
2016-May-23 19:33N 36°25' W 122°19'9 9.4
2016-May-23 18:33N 36°16' W 122°15'10 9.5
2016-May-23 17:33N 36°08' W 122°10'10 9.6
2016-May-23 16:33N 35°59' W 122°04'10 9.6
2016-May-23 15:33N 35°51' W 121°59'8 7.7
2016-May-23 14:33N 35°44' W 121°54'6 6.4
2016-May-23 13:33N 35°39' W 121°50'6 6.3
2016-May-23 12:33N 35°34' W 121°45'6 6.1
2016-May-23 11:32N 35°28' W 121°41'7 6.4
2016-May-23 10:30N 35°22' W 121°37'8 6.2
2016-May-23 09:16N 35°15' W 121°34'6 8.0
2016-May-23 08:33N 35°10' W 121°30'184 7.6
2016-May-22 08:12N 33°39' W 118°17'7 0.2
2016-May-20 18:04N 33°45' W 118°12'0 0.0
2016-May-20 17:31N 33°45' W 118°12'0 0.0
2016-May-20 16:31N 33°45' W 118°12'0 0.0
2016-May-20 15:31N 33°45' W 118°12'0 0.0
2016-May-20 14:28N 33°45' W 118°12'0 0.0
2016-May-20 13:31N 33°45' W 118°12'0 0.2
2016-May-20 12:34N 33°45' W 118°12'0 0.1
2016-May-20 11:31N 33°45' W 118°12'0 0.0
2016-May-20 10:31N 33°45' W 118°12'0 0.0
2016-May-20 09:34N 33°45' W 118°12'0 0.0
2016-May-20 08:31N 33°45' W 118°12'0 0.0
2016-May-20 07:30N 33°45' W 118°12'0 0.0
2016-May-20 06:33N 33°45' W 118°12'0 0.0
2016-May-20 05:25N 33°45' W 118°12'0 0.0
2016-May-20 04:31N 33°45' W 118°12'0 0.0
2016-May-20 03:34N 33°45' W 118°12'0 0.0
2016-May-20 02:31N 33°45' W 118°12'0 0.0
2016-May-20 01:31N 33°45' W 118°12'0 0.0
2016-May-20 00:30N 33°45' W 118°12'0 0.0
2016-May-19 23:31N 33°45' W 118°12'0 0.3
2016-May-19 22:33N 33°45' W 118°12'6 5.9
2016-May-19 21:31N 33°38' W 118°11'9 8.7
2016-May-19 20:30N 33°37' W 118°21'9 9.9
2016-May-19 19:33N 33°41' W 118°31'1010.4
2016-May-19 18:33N 33°46' W 118°42'1010.0
2016-May-19 17:31N 33°51' W 118°53'1210.0
2016-May-19 16:18N 33°58' W 119°06'13211.2
2016-May-19 04:29N 34°24' W 121°42'1717.8
2016-May-19 03:33N 34°24' W 122°02'1918.7
2016-May-19 02:33N 34°25' W 122°24'1918.8
2016-May-19 01:34N 34°25' W 122°47'1918.7
2016-May-19 00:33N 34°25' W 123°10'1918.6
2016-May-18 23:34N 34°25' W 123°32'2718.8
2016-May-18 22:08N 34°25' W 124°05'19119.4
2016-May-18 12:16N 35°22' W 127°47'1520.8
2016-May-18 11:33N 35°28' W 128°04'2020.6
2016-May-18 10:34N 35°37' W 128°27'  
Track history (hours):
 
Tides and Currents Weather Stations Pressure Air Temp Water Temp Dewpoint Dewpoint Depression Visibility Wind Speed Wind Dir Waves Ship Positions

Bangkok Bridge

Last reported at 2016-May-25 08:28 UTC. Time now 2016-May-31 20:03 UTC.
Position N 38°10' W 123°57'.

Length 267 m; draft 10.3 m.

Type: Ship (hazmat cat A). MMSI: 353368000.

Date/timePositionNaut miles runAvg speedWind from/ knotsBaromVisibWave heightAir tempDewpointWater temp
2016-May-25 08:28N 38°10' W 123°57'1719.2
2016-May-25 07:33N 38°10' W 123°35'1212.2
2016-May-25 06:33N 38°08' W 123°19'9 9.4
2016-May-25 05:33N 38°01' W 123°11'10 9.9
2016-May-25 04:33N 37°55' W 123°01'10 9.8
2016-May-25 03:33N 37°50' W 122°50'9 9.1
2016-May-25 02:33N 37°46' W 122°40'1414.0
2016-May-25 01:33N 37°49' W 122°23'3 2.6
2016-May-25 00:33N 37°49' W 122°20'0 0.0
2016-May-24 23:33N 37°49' W 122°20'0 0.0
2016-May-24 22:33N 37°49' W 122°20'0 0.0
2016-May-24 21:33N 37°49' W 122°20'0 0.0
2016-May-24 20:33N 37°49' W 122°20'0 0.0
2016-May-24 19:33N 37°49' W 122°20'0 0.0
2016-May-24 18:33N 37°49' W 122°20'0 0.0
2016-May-24 17:33N 37°49' W 122°20'0 0.0
2016-May-24 16:33N 37°49' W 122°20'0 0.0
2016-May-24 15:33N 37°49' W 122°20'0 0.0
2016-May-24 14:33N 37°49' W 122°20'0 0.0
2016-May-24 13:33N 37°49' W 122°20'4 4.0
2016-May-24 12:33N 37°49' W 122°25'1313.0
2016-May-24 11:34N 37°45' W 122°40'9 8.5
2016-May-24 10:33N 37°36' W 122°40'10 9.7
2016-May-24 09:33N 37°26' W 122°40'15 9.9
2016-May-24 08:05N 37°12' W 122°40'810.5
2016-May-24 07:22N 37°05' W 122°38'6 0.8
2016-May-23 23:31N 36°59' W 122°36'7 7.5
2016-May-23 22:33N 36°52' W 122°32'10 9.6
2016-May-23 21:33N 36°43' W 122°28'10 9.9
2016-May-23 20:33N 36°34' W 122°24'10 9.8
2016-May-23 19:33N 36°25' W 122°19'9 9.4
2016-May-23 18:33N 36°16' W 122°15'10 9.5
2016-May-23 17:33N 36°08' W 122°10'10 9.6
2016-May-23 16:33N 35°59' W 122°04'10 9.6
2016-May-23 15:33N 35°51' W 121°59'8 7.7
2016-May-23 14:33N 35°44' W 121°54'6 6.4
2016-May-23 13:33N 35°39' W 121°50'6 6.3
2016-May-23 12:33N 35°34' W 121°45'6 6.1
2016-May-23 11:32N 35°28' W 121°41'7 6.4
2016-May-23 10:30N 35°22' W 121°37'8 6.2
2016-May-23 09:16N 35°15' W 121°34'6 8.0
2016-May-23 08:33N 35°10' W 121°30'184 7.6
2016-May-22 08:12N 33°39' W 118°17'7 0.2
2016-May-20 18:04N 33°45' W 118°12'0 0.0
2016-May-20 17:31N 33°45' W 118°12'0 0.0
2016-May-20 16:31N 33°45' W 118°12'0 0.0
2016-May-20 15:31N 33°45' W 118°12'0 0.0
2016-May-20 14:28N 33°45' W 118°12'0 0.0
2016-May-20 13:31N 33°45' W 118°12'0 0.2
2016-May-20 12:34N 33°45' W 118°12'0 0.1
2016-May-20 11:31N 33°45' W 118°12'0 0.0
2016-May-20 10:31N 33°45' W 118°12'0 0.0
2016-May-20 09:34N 33°45' W 118°12'0 0.0
2016-May-20 08:31N 33°45' W 118°12'0 0.0
2016-May-20 07:30N 33°45' W 118°12'0 0.0
2016-May-20 06:33N 33°45' W 118°12'0 0.0
2016-May-20 05:25N 33°45' W 118°12'0 0.0
2016-May-20 04:31N 33°45' W 118°12'0 0.0
2016-May-20 03:34N 33°45' W 118°12'0 0.0
2016-May-20 02:31N 33°45' W 118°12'0 0.0
2016-May-20 01:31N 33°45' W 118°12'0 0.0
2016-May-20 00:30N 33°45' W 118°12'0 0.0
2016-May-19 23:31N 33°45' W 118°12'0 0.3
2016-May-19 22:33N 33°45' W 118°12'6 5.9
2016-May-19 21:31N 33°38' W 118°11'9 8.7
2016-May-19 20:30N 33°37' W 118°21'9 9.9
2016-May-19 19:33N 33°41' W 118°31'1010.4
2016-May-19 18:33N 33°46' W 118°42'1010.0
2016-May-19 17:31N 33°51' W 118°53'1210.0
2016-May-19 16:18N 33°58' W 119°06'13211.2
2016-May-19 04:29N 34°24' W 121°42'1717.8
2016-May-19 03:33N 34°24' W 122°02'1918.7
2016-May-19 02:33N 34°25' W 122°24'1918.8
2016-May-19 01:34N 34°25' W 122°47'1918.7
2016-May-19 00:33N 34°25' W 123°10'1918.6
2016-May-18 23:34N 34°25' W 123°32'2718.8
2016-May-18 22:08N 34°25' W 124°05'19119.4
2016-May-18 12:16N 35°22' W 127°47'1520.8
2016-May-18 11:33N 35°28' W 128°04'2020.6
2016-May-18 10:34N 35°37' W 128°27'  

Dump ship's entire track history